Time;durP1;ratioP1;P1;durP2;ratioP2;P2;SDS_P1;SDS_P2;PMS_P1;PMS_P2;Temp;Humidity;BMP_temperature;BMP_pressure;BME280_temperature;BME280_humidity;BME280_pressure;Samples;Min_cycle;Max_cycle;Signal;HPM_P1;HPM_P2
2022/05/28 00:02:25;;;;;;;;;;;;;;;-144.99;100.00;52388.97;4943682;29;20439;-76
2022/05/28 00:04:51;;;;;;;;;;;;;;;-144.99;100.00;52427.72;4942957;29;20002;-74
2022/05/28 00:07:18;;;;;;;;;;;;;;;-144.99;100.00;52366.56;4592764;28;10000045;-74
2022/05/28 00:09:45;;;;;;;;;;;;;;;-144.99;100.00;52421.59;4942041;28;19975;-72
2022/05/28 00:12:12;;;;;;;;;;;;;;;-144.99;100.00;52399.19;4939106;28;19986;-73
2022/05/28 00:14:39;;;;;;;;;;;;;;;-144.99;100.00;52403.25;4939038;28;20041;-76
2022/05/28 00:17:06;;;;;;;;;;;;;;;-144.99;100.00;52476.63;4944183;28;20298;-75
2022/05/28 00:19:33;;;;;;;;;;;;;;;-144.99;100.00;52391.03;4953711;28;19975;-79
2022/05/28 00:21:59;;;;;;;;;;;;;;;-144.99;100.00;52366.56;4971966;28;19979;-77
2022/05/28 00:24:27;;;;;;;;;;;;;;;-144.99;100.00;52460.31;4950549;29;19990;-72
2022/05/28 00:26:55;;;;;;;;;;;;;;;-144.99;100.00;52415.47;4947784;29;19995;-74
2022/05/28 00:29:21;;;;;;;;;;;;;;;-144.99;100.00;52427.72;4949469;28;19983;-75
2022/05/28 00:31:48;;;;;;;;;;;;;;;-144.99;100.00;52419.56;4939625;29;19992;-76
2022/05/28 00:34:14;;;;;;;;;;;;;;;-144.99;100.00;52403.25;4946573;29;20006;-75
2022/05/28 00:36:40;;;;;;;;;;;;;;;-144.99;100.00;52433.81;4948355;29;19990;-74
2022/05/28 00:39:07;;;;;;;;;;;;;;;-144.99;100.00;52407.31;4941463;29;19993;-73
2022/05/28 00:41:34;;;;;;;;;;;;;;;-144.99;100.00;52395.09;4944613;29;20418;-73
2022/05/28 00:44:04;;;;;;;;;;;;;;;-144.99;100.00;52401.22;4948041;29;20377;-73
2022/05/28 00:46:30;;;;;;;;;;;;;;;-144.99;100.00;52399.19;4936939;29;19986;-73
2022/05/28 00:48:58;;;;;;;;;;;;;;;-144.99;100.00;52395.09;4949784;28;19979;-74
2022/05/28 00:51:27;;;;;;;;;;;;;;;-144.99;100.00;52397.13;4943290;28;19960;-74
2022/05/28 00:53:54;;;;;;;;;;;;;;;-144.99;100.00;52415.47;4945916;28;20464;-75
2022/05/28 00:56:22;;;;;;;;;;;;;;;-144.99;100.00;52435.88;4945994;29;19994;-75
2022/05/28 00:58:51;;;;;;;;;;;;;;;-144.99;100.00;52415.47;4946553;29;19986;-76
2022/05/28 01:01:20;;;;;;;;;;;;;;;-144.99;100.00;52407.31;4946517;28;19967;-77
2022/05/28 01:03:54;;;;;;;;;;;;;;;-144.99;100.00;52409.38;4959794;28;19986;-79
2022/05/28 01:06:25;;;;;;;;;;;;;;;-144.99;100.00;52431.78;4946511;29;19978;-75
2022/05/28 01:08:57;;;;;;;;;;;;;;;-144.99;100.00;52425.66;4944950;28;20014;-77
2022/05/28 01:11:26;;;;;;;;;;;;;;;-144.99;100.00;52431.78;4944000;28;20167;-73
2022/05/28 01:13:57;;;;;;;;;;;;;;;-144.99;100.00;52411.41;4945542;28;20006;-74
2022/05/28 01:16:29;;;;;;;;;;;;;;;-144.99;100.00;52431.78;4942389;28;20010;-76
2022/05/28 01:18:57;;;;;;;;;;;;;;;-144.99;100.00;52417.53;4937996;29;19983;-75
2022/05/28 01:21:27;;;;;;;;;;;;;;;-144.99;100.00;52391.03;4941086;29;19979;-73
2022/05/28 01:23:57;;;;;;;;;;;;;;;-144.99;100.00;52435.88;4946923;29;20422;-75
2022/05/28 01:26:29;;;;;;;;;;;;;;;-144.99;100.00;52403.25;4947556;29;20132;-75
2022/05/28 01:28:58;;;;;;;;;;;;;;;-144.99;100.00;52370.63;4944057;29;19979;-76
2022/05/28 01:31:26;;;;;;;;;;;;;;;-144.99;100.00;52395.09;4938224;29;20054;-75
2022/05/28 01:33:54;;;;;;;;;;;;;;;-144.99;100.00;52407.31;4935785;29;20003;-75
2022/05/28 01:36:20;;;;;;;;;;;;;;;-144.99;100.00;52435.88;4938032;29;20003;-75
2022/05/28 01:38:48;;;;;;;;;;;;;;;-144.99;100.00;52415.47;4942825;29;20458;-76
2022/05/28 01:41:15;;;;;;;;;;;;;;;-144.99;100.00;52395.09;4943311;29;19979;-75
2022/05/28 01:43:43;;;;;;;;;;;;;;;-144.99;100.00;52407.31;4953943;28;19982;-76
2022/05/28 01:46:13;;;;;;;;;;;;;;;-144.99;100.00;52366.56;4970580;28;20073;-76
2022/05/28 01:48:40;;;;;;;;;;;;;;;-144.99;100.00;52415.47;4952107;29;19979;-74
2022/05/28 01:51:08;;;;;;;;;;;;;;;-144.99;100.00;52415.47;4944943;29;19982;-77
2022/05/28 01:56:21;;;;;;;;;;;;;;;-144.99;100.00;52419.56;4952635;29;19993;-77
2022/05/28 01:58:47;;;;;;;;;;;;;;;-144.99;100.00;52382.88;4948937;29;20085;-77
2022/05/28 02:01:15;;;;;;;;;;;;;;;-144.99;100.00;52376.75;4949873;29;20393;-76
2022/05/28 02:03:43;;;;;;;;;;;;;;;-144.99;100.00;52399.19;4944589;29;20053;-76
2022/05/28 02:06:11;;;;;;;;;;;;;;;-144.99;100.00;52391.03;4948054;29;20013;-77
2022/05/28 02:08:39;;;;;;;;;;;;;;;-144.99;100.00;52399.19;4948937;29;19983;-77
2022/05/28 02:11:09;;;;;;;;;;;;;;;-144.99;100.00;52431.78;4946453;29;20011;-76
2022/05/28 02:13:44;;;;;;;;;;;;;;;-144.99;100.00;52407.31;4949929;29;20001;-75
2022/05/28 02:16:12;;;;;;;;;;;;;;;-144.99;100.00;52431.78;4949754;28;19978;-76
2022/05/28 02:18:45;;;;;;;;;;;;;;;-144.99;100.00;52384.91;4951430;29;19979;-74
2022/05/28 02:21:16;;;;;;;;;;;;;;;-144.99;100.00;52350.25;4944065;29;19975;-73
2022/05/28 02:23:46;;;;;;;;;;;;;;;-144.99;100.00;52419.56;4942962;29;19990;-77
2022/05/28 02:26:15;;;;;;;;;;;;;;;-144.99;100.00;52413.44;4940869;29;19987;-77
2022/05/28 02:28:42;;;;;;;;;;;;;;;-144.99;100.00;52401.22;4947692;29;20435;-75
2022/05/28 02:31:12;;;;;;;;;;;;;;;-144.99;100.00;52378.78;4941148;29;20034;-75
2022/05/28 02:33:40;;;;;;;;;;;;;;;-144.99;100.00;52403.25;4943792;29;19975;-76
2022/05/28 02:36:07;;;;;;;;;;;;;;;-144.99;100.00;52395.09;4949766;29;20465;-78
2022/05/28 02:38:34;;;;;;;;;;;;;;;-144.99;100.00;52362.50;4948355;29;20419;-76
2022/05/28 02:41:00;;;;;;;;;;;;;;;-144.99;100.00;52425.66;4948039;29;20050;-74
2022/05/28 02:43:26;;;;;;;;;;;;;;;-144.99;100.00;52374.72;4947606;28;19981;-78
2022/05/28 02:45:53;;;;;;;;;;;;;;;-144.99;100.00;52403.25;4948837;29;20526;-77
2022/05/28 02:48:19;;;;;;;;;;;;;;;-144.99;100.00;52427.72;4950822;29;19986;-76
2022/05/28 02:50:46;;;;;;;;;;;;;;;-144.99;100.00;52407.31;4947193;29;20009;-77
2022/05/28 02:53:13;;;;;;;;;;;;;;;-144.99;100.00;52448.09;4947708;29;20153;-77
2022/05/28 02:55:40;;;;;;;;;;;;;;;-144.99;100.00;52380.84;4948387;29;19999;-75
2022/05/28 02:58:06;;;;;;;;;;;;;;;-144.99;100.00;52435.88;4948991;29;19978;-75
2022/05/28 03:00:33;;;;;;;;;;;;;;;-144.99;100.00;52382.88;4941958;29;19975;-77
2022/05/28 03:02:59;;;;;;;;;;;;;;;-144.99;100.00;52407.31;4948321;29;19961;-77
2022/05/28 03:05:26;;;;;;;;;;;;;;;-144.99;100.00;52378.78;4945939;29;19991;-77
2022/05/28 03:07:54;;;;;;;;;;;;;;;-144.99;100.00;52435.88;4956608;29;19993;-77
2022/05/28 03:10:20;;;;;;;;;;;;;;;-144.99;100.00;52393.06;4973225;28;19977;-76
2022/05/28 03:12:46;;;;;;;;;;;;;;;-144.99;100.00;52393.06;4952497;29;19979;-76
2022/05/28 03:15:13;;;;;;;;;;;;;;;-144.99;100.00;52368.59;4975369;23;20001;-68
2022/05/28 03:17:39;;;;;;;;;;;;;;;-144.99;100.00;52384.91;4963288;28;19959;-70
2022/05/28 03:20:06;;;;;;;;;;;;;;;-144.99;100.00;52382.88;4959629;28;19982;-69
2022/05/28 03:22:33;;;;;;;;;;;;;;;-144.99;100.00;52419.56;4962524;28;19982;-71
2022/05/28 03:25:00;;;;;;;;;;;;;;;-144.99;100.00;52395.09;4962631;28;19979;-69
2022/05/28 03:27:27;;;;;;;;;;;;;;;-144.99;100.00;52380.84;4968888;28;19978;-69
2022/05/28 03:29:53;;;;;;;;;;;;;;;-144.99;100.00;52372.69;4979114;28;20465;-69
2022/05/28 03:32:19;;;;;;;;;;;;;;;-144.99;100.00;52372.69;4974849;28;19983;-70
2022/05/28 03:34:45;;;;;;;;;;;;;;;-144.99;100.00;52366.56;4980244;28;20002;-69
2022/05/28 03:37:12;;;;;;;;;;;;;;;-144.99;100.00;52362.50;4971599;28;19987;-69
2022/05/28 03:39:38;;;;;;;;;;;;;;;-144.99;100.00;52405.28;4975495;28;19978;-69
2022/05/28 03:42:06;;;;;;;;;;;;;;;-144.99;100.00;52423.63;4979170;28;19985;-69
2022/05/28 03:44:32;;;;;;;;;;;;;;;-144.99;100.00;52378.78;4979375;28;21148;-70
2022/05/28 03:47:00;;;;;;;;;;;;;;;-144.99;100.00;52386.94;4973545;28;20001;-69
2022/05/28 03:49:27;;;;;;;;;;;;;;;-144.99;100.00;52431.78;4975340;28;19983;-69
2022/05/28 03:51:53;;;;;;;;;;;;;;;-144.99;100.00;52378.78;4979903;28;20002;-73
2022/05/28 03:54:20;;;;;;;;;;;;;;;-144.99;100.00;52372.69;4977934;28;20339;-70
2022/05/28 03:56:47;;;;;;;;;;;;;;;-144.99;100.00;52444.03;4977487;28;19994;-70
2022/05/28 03:59:14;;;;;;;;;;;;;;;-144.99;100.00;52358.41;4974879;28;19986;-71
2022/05/28 04:01:41;;;;;;;;;;;;;;;-144.99;100.00;52393.06;4982639;28;20426;-69
2022/05/28 04:04:07;;;;;;;;;;;;;;;-144.99;100.00;52358.41;4985468;28;19982;-70
2022/05/28 04:06:34;;;;;;;;;;;;;;;-144.99;100.00;52366.56;4979524;28;19997;-69
2022/05/28 04:09:01;;;;;;;;;;;;;;;-144.99;100.00;52370.63;4968929;28;20005;-69
2022/05/28 04:11:27;;;;;;;;;;;;;;;-144.99;100.00;52382.88;4982333;28;19975;-70
2022/05/28 04:13:54;;;;;;;;;;;;;;;-144.99;100.00;52362.50;4978318;28;19978;-72
2022/05/28 04:16:22;;;;;;;;;;;;;;;-144.99;100.00;52378.78;4976517;28;19994;-71
2022/05/28 04:18:48;;;;;;;;;;;;;;;-144.99;100.00;52421.59;4978933;28;20237;-72
2022/05/28 04:21:15;;;;;;;;;;;;;;;-144.99;100.00;52431.78;4972994;28;20041;-70
2022/05/28 04:23:41;;;;;;;;;;;;;;;-144.99;100.00;52362.50;4981266;28;19985;-69
2022/05/28 04:26:08;;;;;;;;;;;;;;;-144.99;100.00;52370.63;4979292;28;19998;-68
2022/05/28 04:28:34;;;;;;;;;;;;;;;-144.99;100.00;52386.94;4978624;28;19982;-70
2022/05/28 04:31:00;;;;;;;;;;;;;;;-144.99;100.00;52386.94;4972064;28;19982;-72
2022/05/28 04:33:28;;;;;;;;;;;;;;;-144.99;100.00;52342.09;4971374;28;19983;-70
2022/05/28 04:35:54;;;;;;;;;;;;;;;-144.99;100.00;52386.94;4974110;28;19998;-69
2022/05/28 04:38:21;;;;;;;;;;;;;;;-144.99;100.00;52391.03;4976143;28;19990;-70
2022/05/28 04:40:48;;;;;;;;;;;;;;;-144.99;100.00;52362.50;4978486;28;20014;-69
2022/05/28 04:43:14;;;;;;;;;;;;;;;-144.99;100.00;52370.63;4975365;28;19989;-68
2022/05/28 04:45:40;;;;;;;;;;;;;;;-144.99;100.00;52407.31;4970741;28;19991;-69
2022/05/28 04:48:07;;;;;;;;;;;;;;;-144.99;100.00;52370.63;4979773;28;20453;-71
2022/05/28 04:50:34;;;;;;;;;;;;;;;-144.99;100.00;52382.88;4969773;28;19975;-70
2022/05/28 04:53:01;;;;;;;;;;;;;;;-144.99;100.00;52366.56;4972642;28;19985;-70
2022/05/28 04:55:27;;;;;;;;;;;;;;;-144.99;100.00;52342.09;4973179;28;19993;-69
2022/05/28 04:57:54;;;;;;;;;;;;;;;-144.99;100.00;52391.03;4980002;28;20381;-71
2022/05/28 05:00:22;;;;;;;;;;;;;;;-144.99;100.00;52366.56;4978556;28;20102;-70
2022/05/28 05:02:48;;;;;;;;;;;;;;;-144.99;100.00;52354.34;4979517;28;20416;-70
2022/05/28 05:05:14;;;;;;;;;;;;;;;-144.99;100.00;52358.41;4980688;28;20311;-71
2022/05/28 05:07:42;;;;;;;;;;;;;;;-144.99;100.00;52386.94;4980209;28;19974;-69
2022/05/28 05:10:09;;;;;;;;;;;;;;;-144.99;100.00;52342.09;4979785;28;20257;-70
2022/05/28 05:12:35;;;;;;;;;;;;;;;-144.99;100.00;52366.56;4977886;28;20085;-69
2022/05/28 05:15:02;;;;;;;;;;;;;;;-144.99;98.59;52391.03;4978160;28;20001;-69
2022/05/28 05:17:28;;;;;;;;;;;;;;;-144.99;95.99;52366.56;4976789;28;19981;-69
2022/05/28 05:19:55;;;;;;;;;;;;;;;-144.99;94.78;52423.63;4979131;28;20284;-69
2022/05/28 05:22:21;;;;;;;;;;;;;;;-144.99;94.70;52382.88;4977579;28;20481;-75
2022/05/28 05:24:49;;;;;;;;;;;;;;;-144.99;92.74;52360.44;4984732;28;20374;-69
2022/05/28 05:27:15;;;;;;;;;;;;;;;-144.99;89.72;52325.81;4985958;28;19992;-69
2022/05/28 05:29:41;;;;;;;;;;;;;;;-144.99;90.16;52321.72;4980611;28;20275;-68
2022/05/28 05:32:08;;;;;;;;;;;;;;;-144.99;90.26;52356.38;4972973;28;20388;-70
2022/05/28 05:34:34;;;;;;;;;;;;;;;-144.99;90.22;52329.88;4980456;28;20010;-70
2022/05/28 05:37:01;;;;;;;;;;;;;;;-144.99;88.63;52378.78;4981098;28;20311;-70
2022/05/28 05:39:27;;;;;;;;;;;;;;;-144.99;88.57;52380.84;4975969;28;20389;-70
2022/05/28 05:41:55;;;;;;;;;;;;;;;-144.99;88.95;52372.69;4979532;28;19992;-70
2022/05/28 05:44:21;;;;;;;;;;;;;;;-144.99;89.54;52366.56;4981153;28;19983;-70
2022/05/28 05:46:48;;;;;;;;;;;;;;;-144.99;90.09;52382.88;4983666;28;20021;-69
2022/05/28 05:49:14;;;;;;;;;;;;;;;-144.99;89.92;52354.34;4980440;28;19979;-70
2022/05/28 05:51:42;;;;;;;;;;;;;;;-144.99;90.11;52358.41;4977991;28;20436;-70
2022/05/28 05:54:08;;;;;;;;;;;;;;;-144.99;89.89;52340.06;4976545;28;19977;-70
2022/05/28 05:56:34;;;;;;;;;;;;;;;-144.99;89.56;52380.84;4979829;28;20000;-70
2022/05/28 05:59:02;;;;;;;;;;;;;;;-144.99;89.16;52342.09;4980830;28;19982;-70
2022/05/28 06:01:28;;;;;;;;;;;;;;;-144.99;89.37;52362.50;4985240;28;19978;-70
2022/05/28 06:03:55;;;;;;;;;;;;;;;-144.99;89.71;52346.19;4987691;28;19992;-71
2022/05/28 06:06:21;;;;;;;;;;;;;;;-144.99;89.05;52327.84;4976540;28;19998;-68
2022/05/28 06:08:48;;;;;;;;;;;;;;;-144.99;88.62;52366.56;4982100;28;19981;-67
2022/05/28 06:11:15;;;;;;;;;;;;;;;-144.99;86.67;52366.56;4986309;28;19982;-68
2022/05/28 06:13:41;;;;;;;;;;;;;;;-144.99;86.53;52374.72;4978548;28;19975;-67
2022/05/28 06:16:09;;;;;;;;;;;;;;;-144.99;85.47;52327.84;4977688;28;20004;-67
2022/05/28 06:18:35;;;;;;;;;;;;;;;-144.99;84.45;52362.50;4976722;28;20201;-66
2022/05/28 06:21:02;;;;;;;;;;;;;;;-144.99;82.96;52356.38;4978660;28;19973;-68
2022/05/28 06:23:29;;;;;;;;;;;;;;;-144.99;82.71;52348.22;4982725;28;19973;-68
2022/05/28 06:25:55;;;;;;;;;;;;;;;-144.99;80.96;52358.41;4978650;28;20375;-68
2022/05/28 06:28:22;;;;;;;;;;;;;;;-144.99;80.59;52348.22;4977982;28;20074;-68
2022/05/28 06:30:50;;;;;;;;;;;;;;;-144.99;77.76;52374.72;4976514;28;20172;-69
2022/05/28 06:33:18;;;;;;;;;;;;;;;-144.99;76.23;52354.34;4971465;28;19999;-69
2022/05/28 06:35:45;;;;;;;;;;;;;;;-144.99;76.48;52370.63;4981336;28;20377;-68
2022/05/28 06:38:11;;;;;;;;;;;;;;;-144.99;76.84;52366.56;4973529;28;19981;-69
2022/05/28 06:40:38;;;;;;;;;;;;;;;-144.99;77.00;52342.09;4975184;28;20443;-68
2022/05/28 06:43:04;;;;;;;;;;;;;;;-144.99;76.31;52356.38;4979413;28;20404;-68
2022/05/28 06:45:31;;;;;;;;;;;;;;;-144.99;75.85;52338.03;4982333;28;19993;-69
2022/05/28 06:47:57;;;;;;;;;;;;;;;-144.99;74.79;52338.03;4978192;28;19995;-67
2022/05/28 06:53:09;;;;;;;;;;;;;;;-144.99;73.93;52362.50;4981021;28;19988;-71
2022/05/28 06:55:35;;;;;;;;;;;;;;;-144.99;73.52;52321.72;4972501;28;19969;-70
2022/05/28 06:58:02;;;;;;;;;;;;;;;-144.99;72.84;52342.09;4978340;28;20034;-70
2022/05/28 07:00:28;;;;;;;;;;;;;;;-144.99;71.92;52333.94;4975401;28;19974;-72
2022/05/28 07:02:55;;;;;;;;;;;;;;;-144.99;71.21;52317.66;4975747;28;20458;-71
2022/05/28 07:05:21;;;;;;;;;;;;;;;-144.99;70.50;52295.22;4982744;28;19997;-71
2022/05/28 07:07:49;;;;;;;;;;;;;;;-144.99;68.75;52289.13;4981427;28;20005;-72
2022/05/28 07:10:15;;;;;;;;;;;;;;;-144.99;65.36;52346.19;4975640;28;19977;-72
2022/05/28 07:12:41;;;;;;;;;;;;;;;-144.99;66.94;52317.66;4976856;28;20399;-72
2022/05/28 07:15:09;;;;;;;;;;;;;;;-144.99;69.29;52346.19;4977110;28;19996;-72
2022/05/28 07:17:35;;;;;;;;;;;;;;;-144.99;73.95;52321.72;4976499;28;20359;-72
2022/05/28 07:20:01;;;;;;;;;;;;;;;-144.99;79.49;52338.03;4983182;28;19958;-71
2022/05/28 07:22:28;;;;;;;;;;;;;;;-144.99;83.01;52362.50;4972526;28;20005;-72
2022/05/28 07:24:56;;;;;;;;;;;;;;;-144.99;85.88;52384.91;4971575;28;20360;-70
2022/05/28 07:27:22;;;;;;;;;;;;;;;-144.99;87.79;52358.41;4975250;28;19984;-71
2022/05/28 07:29:48;;;;;;;;;;;;;;;-144.99;88.57;52313.56;4974411;28;19985;-72
2022/05/28 07:32:14;;;;;;;;;;;;;;;-144.99;88.14;52362.50;4971865;28;20474;-72
2022/05/28 07:34:41;;;;;;;;;;;;;;;-144.99;89.24;52317.66;4978013;28;19974;-72
2022/05/28 07:37:07;;;;;;;;;;;;;;;-144.99;88.24;52301.34;4983602;28;20000;-73
2022/05/28 07:39:33;;;;;;;;;;;;;;;-144.99;87.24;52352.28;4983977;28;19973;-72
2022/05/28 07:42:02;;;;;;;;;;;;;;;-144.99;87.83;52321.72;4976117;28;19978;-72
2022/05/28 07:44:29;;;;;;;;;;;;;;;-144.99;87.65;52321.72;4973444;28;19973;-73
2022/05/28 07:46:55;;;;;;;;;;;;;;;-144.99;81.90;52342.09;4977000;28;19993;-73
2022/05/28 07:49:21;;;;;;;;;;;;;;;-144.99;82.41;52342.09;4972097;28;19981;-72
2022/05/28 07:51:47;;;;;;;;;;;;;;;-144.99;81.92;52366.56;4973711;28;19996;-72
2022/05/28 07:54:16;;;;;;;;;;;;;;;-144.99;80.14;52338.03;4982744;28;19978;-72
2022/05/28 07:56:42;;;;;;;;;;;;;;;-144.99;80.35;52333.94;4977773;28;20001;-71
2022/05/28 07:59:10;;;;;;;;;;;;;;;-144.99;79.10;52313.56;4973651;28;19976;-73
2022/05/28 08:01:39;;;;;;;;;;;;;;;-144.99;77.49;52350.25;4982078;28;20452;-72
2022/05/28 08:04:06;;;;;;;;;;;;;;;-144.99;78.54;52293.19;4975280;28;20017;-73
2022/05/28 08:06:32;;;;;;;;;;;;;;;-144.99;74.87;52321.72;4968633;28;19999;-72
2022/05/28 08:08:59;;;;;;;;;;;;;;;-144.99;75.71;52305.41;4979775;28;19978;-72
2022/05/28 08:11:25;;;;;;;;;;;;;;;-144.99;72.12;52325.81;4978813;28;20451;-73
2022/05/28 08:13:52;;;;;;;;;;;;;;;-144.99;70.30;52338.03;4978032;28;20466;-73
2022/05/28 08:16:20;;;;;;;;;;;;;;;-144.99;72.90;52325.81;4973197;28;20008;-72
2022/05/28 08:18:46;;;;;;;;;;;;;;;-144.99;72.59;52323.75;4973303;28;19977;-73
2022/05/28 08:23:57;;;;;;;;;;;;;;;-144.99;72.12;52333.94;4979943;28;20080;-72
2022/05/28 08:26:24;;;;;;;;;;;;;;;-144.99;71.27;52321.72;4978164;28;19998;-72
2022/05/28 08:28:50;;;;;;;;;;;;;;;-144.99;69.05;52348.22;4975116;28;20470;-73
2022/05/28 08:31:17;;;;;;;;;;;;;;;-144.99;67.98;52307.47;4974233;28;19981;-71
2022/05/28 08:33:45;;;;;;;;;;;;;;;-144.99;66.36;52285.03;4967307;28;19980;-72
2022/05/28 08:36:12;;;;;;;;;;;;;;;-144.99;62.25;52295.22;4973980;28;20006;-72
2022/05/28 08:38:39;;;;;;;;;;;;;;;-144.99;64.43;52321.72;4974290;28;20026;-72
2022/05/28 08:41:07;;;;;;;;;;;;;;;-144.99;67.57;52348.22;4980231;28;20002;-73
2022/05/28 08:43:35;;;;;;;;;;;;;;;-144.99;69.09;52358.41;4978095;28;19984;-73
2022/05/28 08:46:02;;;;;;;;;;;;;;;-144.99;68.57;52321.72;4975644;28;19995;-73
2022/05/28 08:48:34;;;;;;;;;;;;;;;-144.99;69.00;52317.66;4979172;28;19998;-71
2022/05/28 08:51:04;;;;;;;;;;;;;;;-144.99;67.02;52333.94;4971119;28;20359;-73
2022/05/28 08:53:32;;;;;;;;;;;;;;;-144.99;67.09;52338.03;4974232;28;19988;-72
2022/05/28 08:55:59;;;;;;;;;;;;;;;-144.99;65.83;52317.66;4980071;28;19999;-73
2022/05/28 08:58:27;;;;;;;;;;;;;;;-144.99;64.91;52333.94;4970803;28;20433;-72
2022/05/28 09:00:56;;;;;;;;;;;;;;;-144.99;63.08;52315.59;4969830;28;19950;-74
2022/05/28 09:03:24;;;;;;;;;;;;;;;-144.99;60.34;52297.25;4634580;28;10000295;-72
2022/05/28 09:05:53;;;;;;;;;;;;;;;-144.99;58.95;52295.22;4967483;28;19997;-73
2022/05/28 09:08:26;;;;;;;;;;;;;;;-144.99;58.90;52305.41;4972909;28;19992;-73
2022/05/28 09:10:54;;;;;;;;;;;;;;;-144.99;59.51;52289.13;4969596;28;19929;-74
2022/05/28 09:13:24;;;;;;;;;;;;;;;-144.99;57.18;52301.34;4974830;28;19975;-72
2022/05/28 09:15:51;;;;;;;;;;;;;;;-144.99;56.36;52313.56;4973935;23;19999;-72
2022/05/28 09:18:18;;;;;;;;;;;;;;;-144.99;56.35;52321.72;4944929;28;19995;-72
2022/05/28 09:20:44;;;;;;;;;;;;;;;-144.99;57.45;52317.66;4948450;28;19978;-74
2022/05/28 09:23:11;;;;;;;;;;;;;;;-144.99;59.58;52313.56;4945646;28;19980;-73
2022/05/28 09:25:43;;;;;;;;;;;;;;;-144.99;58.05;52325.81;4958558;28;19977;-74
2022/05/28 09:28:16;;;;;;;;;;;;;;;-144.99;57.98;52293.19;4951824;28;20289;-73
2022/05/28 09:30:47;;;;;;;;;;;;;;;-144.99;57.79;52309.50;4939091;28;19985;-72
2022/05/28 09:33:28;;;;;;;;;;;;;;;-144.99;57.15;52346.19;4953938;28;19980;-73
2022/05/28 09:36:01;;;;;;;;;;;;;;;-144.99;57.13;52325.81;4955004;28;20498;-73
2022/05/28 09:38:31;;;;;;;;;;;;;;;-144.99;57.58;52333.94;4945528;28;19977;-74
2022/05/28 09:41:06;;;;;;;;;;;;;;;-144.99;57.73;52280.97;4955877;28;20254;-73
2022/05/28 09:43:43;;;;;;;;;;;;;;;-144.99;55.84;52285.03;4945966;28;19980;-73
2022/05/28 09:46:13;;;;;;;;;;;;;;;-144.99;53.10;52329.88;4950057;28;19998;-73
2022/05/28 09:48:39;;;;;;;;;;;;;;;-144.99;52.18;52289.13;4958054;28;20510;-73
2022/05/28 09:51:20;;;;;;;;;;;;;;;-144.99;51.68;52301.34;4957760;28;20149;-74
2022/05/28 09:56:36;;;;;;;;;;;;;;;-144.99;51.56;52311.53;4947431;28;20096;-74
2022/05/28 09:59:05;;;;;;;;;;;;;;;-144.99;51.70;52280.97;4955733;28;20079;-74
2022/05/28 10:01:33;;;;;;;;;;;;;;;-144.99;52.99;52276.88;4947395;28;20363;-74
2022/05/28 10:06:46;;;;;;;;;;;;;;;-144.99;50.42;52272.81;4937361;29;20435;-73
2022/05/28 10:09:13;;;;;;;;;;;;;;;-144.99;50.81;52321.72;4956611;28;20387;-74
2022/05/28 10:11:50;;;;;;;;;;;;;;;-144.99;50.52;52338.03;4950269;28;19985;-73
2022/05/28 10:14:16;;;;;;;;;;;;;;;-144.99;53.12;52348.22;4948696;29;20460;-73
2022/05/28 10:16:46;;;;;;;;;;;;;;;-144.99;55.31;52321.72;4946099;28;20005;-73
2022/05/28 10:19:17;;;;;;;;;;;;;;;-144.99;60.35;52346.19;4958100;28;20230;-74
2022/05/28 10:21:47;;;;;;;;;;;;;;;-144.99;60.48;52321.72;4955993;28;20399;-73
2022/05/28 10:24:16;;;;;;;;;;;;;;;-144.99;60.39;52350.25;4947869;28;20466;-73
2022/05/28 10:26:45;;;;;;;;;;;;;;;-144.99;60.07;52293.19;4947408;28;20002;-74
2022/05/28 10:29:18;;;;;;;;;;;;;;;-144.99;58.35;52333.94;4955472;28;19980;-74
2022/05/28 10:31:46;;;;;;;;;;;;;;;-144.99;57.30;52323.75;4946195;29;19989;-73
2022/05/28 10:34:22;;;;;;;;;;;;;;;-144.99;55.70;52276.88;4947851;29;19984;-72
2022/05/28 10:36:48;;;;;;;;;;;;;;;-144.99;54.94;52272.81;4948517;29;20484;-74
2022/05/28 10:39:18;;;;;;;;;;;;;;;-144.99;54.48;52293.19;4947951;28;20375;-74
2022/05/28 10:41:44;;;;;;;;;;;;;;;-144.99;53.58;52317.66;4941601;28;19977;-73
2022/05/28 10:44:12;;;;;;;;;;;;;;;-144.99;53.94;52272.81;4943369;28;19989;-74
2022/05/28 10:47:01;;;;;;;;;;;;;;;-144.99;53.70;52276.88;4951605;28;20089;-74
2022/05/28 10:49:34;;;;;;;;;;;;;;;-144.99;53.45;52305.41;4948799;29;19987;-73
2022/05/28 10:52:08;;;;;;;;;;;;;;;-144.99;53.93;52313.56;4940177;28;19981;-74
2022/05/28 10:54:41;;;;;;;;;;;;;;;-144.99;57.08;52305.41;4951576;28;19973;-73
2022/05/28 10:57:16;;;;;;;;;;;;;;;-144.99;60.21;52374.72;4951502;28;20001;-72
2022/05/28 10:59:51;;;;;;;;;;;;;;;-144.99;62.14;52309.50;4946526;28;19977;-73
2022/05/28 11:02:29;;;;;;;;;;;;;;;-144.99;62.87;52368.59;4952970;28;19983;-73
2022/05/28 11:05:02;;;;;;;;;;;;;;;-144.99;67.95;52350.25;4945488;28;20416;-75
2022/05/28 11:07:43;;;;;;;;;;;;;;;-144.99;74.09;52358.41;4954013;28;20403;-73
2022/05/28 11:10:26;;;;;;;;;;;;;;;-144.99;80.20;52346.19;4945282;28;20373;-74
2022/05/28 11:13:00;;;;;;;;;;;;;;;-144.99;83.91;52342.09;4945591;28;19982;-74
2022/05/28 11:15:45;;;;;;;;;;;;;;;-144.99;85.59;52325.81;4947336;28;19979;-73
2022/05/28 11:18:23;;;;;;;;;;;;;;;-144.99;88.65;52352.28;4948566;28;19990;-73
2022/05/28 11:20:55;;;;;;;;;;;;;;;-144.99;90.29;52358.41;4953102;28;19978;-73
2022/05/28 11:23:26;;;;;;;;;;;;;;;-144.99;91.53;52399.19;4955178;28;19988;-73
2022/05/28 11:25:59;;;;;;;;;;;;;;;-144.99;93.21;52356.38;4947121;28;20456;-74
2022/05/28 11:28:33;;;;;;;;;;;;;;;-144.99;92.19;52346.19;4957265;28;20002;-74
2022/05/28 11:31:07;;;;;;;;;;;;;;;-144.99;92.94;52358.41;4958859;28;19980;-73
2022/05/28 11:33:37;;;;;;;;;;;;;;;-144.99;93.61;52364.53;4951201;28;19985;-74
2022/05/28 11:36:07;;;;;;;;;;;;;;;-144.99;91.95;52356.38;4958430;28;20427;-74
2022/05/28 11:38:36;;;;;;;;;;;;;;;-144.99;87.65;52386.94;4959612;28;20093;-72
2022/05/28 11:41:06;;;;;;;;;;;;;;;-144.99;87.84;52350.25;4952946;28;20388;-72
2022/05/28 11:43:34;;;;;;;;;;;;;;;-144.99;86.73;52333.94;4957856;28;19975;-72
2022/05/28 11:46:03;;;;;;;;;;;;;;;-144.99;85.71;52374.72;4953450;28;20110;-74
2022/05/28 11:51:27;;;;;;;;;;;;;;;-144.99;82.14;52376.75;4945279;28;19977;-73
2022/05/28 11:51:30;;;;;;;;;;;;;;;-144.99;80.89;52358.41;4957348;28;20300;-74
2022/05/28 11:53:59;;;;;;;;;;;;;;;-144.99;76.67;52346.19;4954090;28;19982;-74
2022/05/28 11:56:28;;;;;;;;;;;;;;;-144.99;74.17;52305.41;4943879;28;19990;-73
2022/05/28 11:58:57;;;;;;;;;;;;;;;-144.99;73.88;52297.25;4955379;28;20090;-74
2022/05/28 12:01:27;;;;;;;;;;;;;;;-144.99;71.61;52329.88;4945453;28;19976;-74
2022/05/28 12:03:53;;;;;;;;;;;;;;;-144.99;70.46;52311.53;4955338;28;19975;-73
2022/05/28 12:06:28;;;;;;;;;;;;;;;-144.99;65.30;52297.25;4950025;28;20011;-72
2022/05/28 12:09:00;;;;;;;;;;;;;;;-144.99;64.07;52309.50;4947454;28;19981;-72
2022/05/28 12:11:45;;;;;;;;;;;;;;;-144.99;61.27;52338.03;4941814;29;20065;-73
2022/05/28 12:14:23;;;;;;;;;;;;;;;-144.99;63.81;52244.28;4956796;28;19963;-73
2022/05/28 12:16:58;;;;;;;;;;;;;;;-144.99;60.84;52346.19;4952158;28;19986;-72
2022/05/28 12:19:25;;;;;;;;;;;;;;;-144.99;58.48;52293.19;4960601;28;19990;-73
2022/05/28 12:21:53;;;;;;;;;;;;;;;-144.99;59.13;52342.09;4954087;28;19956;-73
2022/05/28 12:24:26;;;;;;;;;;;;;;;-144.99;57.96;52309.50;4959575;28;20434;-74
2022/05/28 12:27:13;;;;;;;;;;;;;;;-144.99;58.11;52333.94;4956951;28;19966;-73
2022/05/28 12:29:45;;;;;;;;;;;;;;;-144.99;59.43;52321.72;4954037;28;19931;-73
2022/05/28 12:32:16;;;;;;;;;;;;;;;-144.99;58.32;52350.25;4959068;28;19962;-72
2022/05/28 12:34:51;;;;;;;;;;;;;;;-144.99;58.67;52342.09;4946363;29;19965;-73
2022/05/28 12:37:21;;;;;;;;;;;;;;;-144.99;58.97;52391.03;4958618;28;19969;-73
2022/05/28 12:39:55;;;;;;;;;;;;;;;-144.99;59.77;52354.34;4951886;28;19950;-72
2022/05/28 12:42:23;;;;;;;;;;;;;;;-144.99;61.13;52407.31;4949209;28;20275;-73
2022/05/28 12:44:50;;;;;;;;;;;;;;;-144.99;63.13;52384.91;4935853;28;20557;-72